createdAt,value
2023-03-28T00:01:01.618Z,101136.53
2023-03-28T00:03:29.738Z,101135.69
2023-03-28T00:05:58.014Z,101164.97
2023-03-28T00:08:25.032Z,101167.59
2023-03-28T00:10:51.807Z,101165.84
2023-03-28T00:13:20.020Z,101158.97
2023-03-28T00:15:47.032Z,101155.53
2023-03-28T00:18:14.461Z,101095.19
2023-03-28T00:20:43.677Z,101127.97
2023-03-28T00:23:12.283Z,101172.78
2023-03-28T00:25:41.868Z,101174.53
2023-03-28T00:28:09.322Z,101174.53
2023-03-28T00:30:36.169Z,101165.88
2023-03-28T00:33:05.317Z,101134.84
2023-03-28T00:35:33.174Z,101174.53
2023-03-28T00:37:59.947Z,101133.13
2023-03-28T00:40:27.001Z,101131.41
2023-03-28T00:42:54.497Z,101127.09
2023-03-28T00:45:24.107Z,101121.06
2023-03-28T00:48:01.830Z,101162.47
2023-03-28T00:50:38.141Z,101166.75
2023-03-28T00:53:15.643Z,101163.31
2023-03-28T00:55:47.447Z,101121.06
2023-03-28T00:58:24.840Z,101099.50
2023-03-28T01:00:52.189Z,101144.34
2023-03-28T01:03:20.262Z,101114.16
2023-03-28T01:05:48.029Z,101096.94
2023-03-28T01:08:21.996Z,101069.31
2023-03-28T01:10:49.876Z,101090.88
2023-03-28T01:13:24.859Z,101086.59
2023-03-28T01:15:52.134Z,101091.75
2023-03-28T01:18:22.916Z,101118.47
2023-03-28T01:21:23.738Z,101123.63
2023-03-28T01:24:12.653Z,101110.72
2023-03-28T01:26:57.456Z,101115.88
2023-03-28T01:30:02.427Z,101106.41
2023-03-28T01:32:29.105Z,101097.78
2023-03-28T01:35:14.513Z,101090.88
2023-03-28T01:38:14.575Z,101085.69
2023-03-28T01:40:41.393Z,101093.47
2023-03-28T01:43:26.949Z,101082.25
2023-03-28T01:46:16.868Z,101069.34
2023-03-28T01:49:16.344Z,101076.25
2023-03-28T01:52:01.251Z,101030.53
2023-03-28T01:54:52.434Z,101033.13
2023-03-28T01:57:28.148Z,101064.16
2023-03-28T02:00:25.009Z,101055.53
2023-03-28T02:02:54.631Z,101059.84
2023-03-28T02:05:23.742Z,101012.47
2023-03-28T02:07:52.195Z,101047.81
2023-03-28T02:10:22.929Z,101041.78
2023-03-28T02:12:54.475Z,101057.28
2023-03-28T02:15:24.208Z,101042.63
2023-03-28T02:17:56.780Z,101019.38
2023-03-28T02:20:26.696Z,101027.97
2023-03-28T02:23:01.483Z,101051.25
2023-03-28T02:25:28.467Z,101037.44
2023-03-28T02:28:01.314Z,101031.41
2023-03-28T02:30:28.693Z,101021.91
2023-03-28T02:33:03.655Z,101011.56
2023-03-28T02:36:02.846Z,100986.56
2023-03-28T02:39:02.337Z,100977.13
2023-03-28T02:41:44.491Z,101015.03
2023-03-28T02:44:11.266Z,101009.00
2023-03-28T02:47:01.300Z,101001.25
2023-03-28T02:49:50.364Z,100997.81
2023-03-28T02:52:52.380Z,100996.94
2023-03-28T02:55:54.695Z,100986.63
2023-03-28T02:58:40.357Z,100911.63
2023-03-28T03:01:07.485Z,100965.06
2023-03-28T03:03:36.765Z,100967.63
2023-03-28T03:06:07.172Z,100958.13
2023-03-28T03:08:34.146Z,100964.16
2023-03-28T03:11:00.967Z,100966.72
2023-03-28T03:13:27.847Z,100928.84
2023-03-28T03:15:54.749Z,100909.88
2023-03-28T03:18:22.227Z,100905.53
2023-03-28T03:20:50.408Z,100929.66
2023-03-28T03:23:17.179Z,100880.56
2023-03-28T03:25:45.426Z,100943.41
2023-03-28T03:28:13.232Z,100949.50
2023-03-28T03:30:40.196Z,100955.50
2023-03-28T03:33:10.686Z,100891.72
2023-03-28T03:35:38.343Z,100897.78
2023-03-28T03:38:05.131Z,100890.94
2023-03-28T03:40:32.113Z,100934.84
2023-03-28T03:42:58.879Z,100891.78
2023-03-28T03:45:25.847Z,100879.72
2023-03-28T03:47:52.801Z,100878.88
2023-03-28T03:50:19.985Z,100913.38
2023-03-28T03:52:46.835Z,100878.94
2023-03-28T03:55:14.608Z,100890.13
2023-03-28T03:57:41.739Z,100903.06
2023-03-28T04:00:12.263Z,100895.31
2023-03-28T04:02:40.102Z,100870.34
2023-03-28T04:05:09.325Z,100877.25
2023-03-28T04:07:36.643Z,100883.28
2023-03-28T04:10:04.451Z,100878.09
2023-03-28T04:12:31.531Z,100817.00
2023-03-28T04:14:58.254Z,100819.53
2023-03-28T04:17:30.138Z,100835.03
2023-03-28T04:19:57.105Z,100849.59
2023-03-28T04:22:24.210Z,100862.44
2023-03-28T04:24:53.547Z,100825.44
2023-03-28T04:27:20.299Z,100806.50
2023-03-28T04:29:47.015Z,100779.00
2023-03-28T04:32:13.845Z,100855.53
2023-03-28T04:34:40.599Z,100858.91
2023-03-28T04:37:09.371Z,100820.22
2023-03-28T04:39:36.193Z,100819.31
2023-03-28T04:42:05.563Z,100853.63
2023-03-28T04:44:32.445Z,100803.75
2023-03-28T04:47:00.020Z,100843.25
2023-03-28T04:49:26.930Z,100833.84
2023-03-28T04:51:53.716Z,100777.06
2023-03-28T04:54:20.950Z,100830.34
2023-03-28T04:56:51.032Z,100808.81
2023-03-28T04:59:18.119Z,100817.38
2023-03-28T05:01:50.852Z,100837.94
2023-03-28T05:04:18.914Z,100814.75
2023-03-28T05:06:46.495Z,100833.59
2023-03-28T05:09:13.595Z,100795.69
2023-03-28T05:11:40.953Z,100819.69
2023-03-28T05:14:07.756Z,100830.00
2023-03-28T05:16:34.555Z,100774.91
2023-03-28T05:19:01.810Z,100789.41
2023-03-28T05:21:28.967Z,100814.34
2023-03-28T05:23:55.717Z,100816.09
2023-03-28T05:26:22.637Z,100791.97
2023-03-28T05:28:49.774Z,100773.97
2023-03-28T05:31:17.507Z,100785.97
2023-03-28T05:33:44.315Z,100763.69
2023-03-28T05:36:13.084Z,100812.53
2023-03-28T05:38:39.913Z,100767.13
2023-03-28T05:41:06.966Z,100792.91
2023-03-28T05:43:33.657Z,100800.66
2023-03-28T05:46:00.542Z,100783.47
2023-03-28T05:48:27.335Z,100795.38
2023-03-28T05:50:54.130Z,100798.75
2023-03-28T05:53:20.852Z,100760.09
2023-03-28T05:55:49.573Z,100784.97
2023-03-28T05:58:16.378Z,100781.41
2023-03-28T06:00:44.945Z,100807.13
2023-03-28T06:03:16.498Z,100802.84
2023-03-28T06:05:43.978Z,100771.06
2023-03-28T06:08:10.975Z,100798.56
2023-03-28T06:10:37.813Z,100753.13
2023-03-28T06:13:06.067Z,100775.41
2023-03-28T06:15:33.403Z,100756.44
2023-03-28T06:18:00.148Z,100740.94
2023-03-28T06:20:29.455Z,100750.31
2023-03-28T06:22:56.212Z,100755.41
2023-03-28T06:25:22.902Z,100776.91
2023-03-28T06:27:49.574Z,100761.34
2023-03-28T06:30:16.264Z,100779.41
2023-03-28T06:32:43.054Z,100743.38
2023-03-28T06:35:10.020Z,100792.50
2023-03-28T06:37:36.712Z,100748.53
2023-03-28T06:40:03.859Z,100773.34
2023-03-28T06:42:30.629Z,100752.69
2023-03-28T06:44:57.309Z,100763.00
2023-03-28T06:47:24.007Z,100752.63
2023-03-28T06:49:50.742Z,100733.72
2023-03-28T06:52:17.533Z,100690.75
2023-03-28T06:54:45.325Z,100737.16
2023-03-28T06:57:13.452Z,100721.44
2023-03-28T06:59:40.195Z,100710.47
2023-03-28T07:02:07.019Z,100749.00
2023-03-28T07:04:35.024Z,100738.63
2023-03-28T07:07:01.994Z,100710.13
2023-03-28T07:09:28.940Z,100714.41
2023-03-28T07:11:55.780Z,100703.06
2023-03-28T07:14:22.544Z,100730.38
2023-03-28T07:16:49.368Z,100702.13
2023-03-28T07:19:16.261Z,100701.16
2023-03-28T07:21:43.280Z,100715.88
2023-03-28T07:24:10.422Z,100670.22
2023-03-28T07:26:37.095Z,100683.00
2023-03-28T07:29:03.930Z,100705.97
2023-03-28T07:31:31.145Z,100695.47
2023-03-28T07:33:58.309Z,100654.19
2023-03-28T07:36:27.137Z,100697.94
2023-03-28T07:38:54.200Z,100708.25
2023-03-28T07:41:22.740Z,100668.38
2023-03-28T07:43:49.538Z,100671.88
2023-03-28T07:46:16.518Z,100666.06
2023-03-28T07:48:45.663Z,100670.31
2023-03-28T07:51:14.832Z,100685.16
2023-03-28T07:53:41.614Z,100656.91
2023-03-28T07:56:10.817Z,100680.88
2023-03-28T07:58:39.376Z,100665.91
2023-03-28T08:01:12.123Z,100658.34
2023-03-28T08:03:39.747Z,100670.97
2023-03-28T08:06:20.068Z,100624.44
2023-03-28T08:08:52.211Z,100673.09
2023-03-28T08:11:18.951Z,100625.28
2023-03-28T08:13:45.655Z,100615.03
2023-03-28T08:16:12.345Z,100601.94
2023-03-28T08:18:39.213Z,100630.00
2023-03-28T08:21:06.273Z,100633.06
2023-03-28T08:23:32.904Z,100668.31
2023-03-28T08:26:06.405Z,100651.81
2023-03-28T08:28:34.817Z,100660.13
2023-03-28T08:31:03.092Z,100643.44
2023-03-28T08:33:30.035Z,100668.22
2023-03-28T08:35:57.178Z,100621.13
2023-03-28T08:38:24.495Z,100663.34
2023-03-28T08:41:29.838Z,100647.19
2023-03-28T08:44:30.074Z,100634.13
2023-03-28T08:47:05.951Z,100640.13
2023-03-28T08:49:44.072Z,100617.53
2023-03-28T08:52:16.546Z,100643.88
2023-03-28T08:54:43.190Z,100647.53
2023-03-28T08:57:17.890Z,100646.84
2023-03-28T09:00:31.365Z,100634.75
2023-03-28T09:02:59.114Z,100620.69
2023-03-28T09:05:44.494Z,100627.66
2023-03-28T09:08:23.320Z,100628.22
2023-03-28T09:11:02.098Z,100621.94
2023-03-28T09:14:16.224Z,100612.56
2023-03-28T09:16:57.408Z,100583.16
2023-03-28T09:19:47.877Z,100606.13
2023-03-28T09:22:33.257Z,100609.50
2023-03-28T09:25:21.718Z,100608.13
2023-03-28T09:28:29.077Z,100608.63
2023-03-28T09:30:58.939Z,100579.47
2023-03-28T09:33:30.531Z,100592.50
2023-03-28T09:35:57.737Z,100604.69
2023-03-28T09:38:33.530Z,100564.09
2023-03-28T09:41:05.696Z,100588.81
2023-03-28T09:43:39.638Z,100569.03
2023-03-28T09:46:18.792Z,100581.50
2023-03-28T09:48:45.807Z,100592.28
2023-03-28T09:51:18.308Z,100535.13
2023-03-28T09:53:45.022Z,100572.25
2023-03-28T09:56:33.285Z,100584.84
2023-03-28T09:59:02.662Z,100584.78
2023-03-28T10:01:46.421Z,100579.28
2023-03-28T10:04:39.438Z,100572.59
2023-03-28T10:07:09.204Z,100571.59
2023-03-28T10:09:47.878Z,100558.75
2023-03-28T10:12:42.038Z,100557.75
2023-03-28T10:15:43.456Z,100548.97
2023-03-28T10:18:19.627Z,100514.41
2023-03-28T10:20:48.964Z,100556.94
2023-03-28T10:23:16.204Z,100520.00
2023-03-28T10:25:46.236Z,100533.31
2023-03-28T10:28:21.087Z,100533.69
2023-03-28T10:30:57.799Z,100545.25
2023-03-28T10:33:30.948Z,100520.16
2023-03-28T10:36:11.040Z,100500.72
2023-03-28T10:38:48.849Z,100529.72
2023-03-28T10:41:25.871Z,100526.66
2023-03-28T10:43:53.976Z,100520.69
2023-03-28T10:46:22.125Z,100456.69
2023-03-28T10:49:01.408Z,100486.84
2023-03-28T10:51:31.458Z,100511.50
2023-03-28T10:54:06.853Z,100506.00
2023-03-28T10:56:57.756Z,100506.72
2023-03-28T10:59:40.701Z,100501.59
2023-03-28T11:02:07.441Z,100479.81
2023-03-28T11:04:57.937Z,100449.00
2023-03-28T11:08:01.814Z,100497.53
2023-03-28T11:10:41.846Z,100491.97
2023-03-28T11:13:23.660Z,100492.41
2023-03-28T11:15:59.507Z,100488.84
2023-03-28T11:18:53.503Z,100492.19
2023-03-28T11:21:27.022Z,100445.34
2023-03-28T11:23:56.647Z,100483.75
2023-03-28T11:26:32.428Z,100460.41
2023-03-28T11:29:08.515Z,100477.91
2023-03-28T11:31:51.375Z,100470.56
2023-03-28T11:34:21.929Z,100467.06
2023-03-28T11:37:13.571Z,100464.91
2023-03-28T11:39:54.473Z,100464.66
2023-03-28T11:42:27.449Z,100411.94
2023-03-28T11:45:02.713Z,100456.94
2023-03-28T11:47:42.753Z,100454.81
2023-03-28T11:50:18.944Z,100445.09
2023-03-28T11:52:56.958Z,100426.81
2023-03-28T11:55:32.934Z,100388.16
2023-03-28T11:58:16.077Z,100403.63
2023-03-28T12:01:11.424Z,100424.81
2023-03-28T12:03:38.972Z,100433.09
2023-03-28T12:06:27.107Z,100394.91
2023-03-28T12:09:02.899Z,100425.59
2023-03-28T12:11:52.879Z,100420.13
2023-03-28T12:14:34.077Z,100424.97
2023-03-28T12:17:11.207Z,100401.56
2023-03-28T12:19:40.399Z,100405.88
2023-03-28T12:22:21.384Z,100388.88
2023-03-28T12:25:09.165Z,100404.72
2023-03-28T12:28:15.726Z,100403.38
2023-03-28T12:30:59.098Z,100392.38
2023-03-28T12:33:50.719Z,100396.06
2023-03-28T12:36:34.224Z,100385.59
2023-03-28T12:39:04.383Z,100391.16
2023-03-28T12:41:37.696Z,100367.78
2023-03-28T12:44:11.066Z,100382.91
2023-03-28T12:46:46.231Z,100365.88
2023-03-28T12:49:42.297Z,100371.66
2023-03-28T12:52:16.141Z,100351.97
2023-03-28T12:55:08.115Z,100348.41
2023-03-28T12:57:46.012Z,100355.59
2023-03-28T13:00:31.712Z,100346.72
2023-03-28T13:03:07.149Z,100312.84
2023-03-28T13:05:55.866Z,100344.84
2023-03-28T13:08:35.752Z,100333.22
2023-03-28T13:11:17.072Z,100284.38
2023-03-28T13:13:59.275Z,100332.25
2023-03-28T13:16:48.229Z,100312.16
2023-03-28T13:19:18.606Z,100301.78
2023-03-28T13:21:46.467Z,100313.56
2023-03-28T13:24:25.632Z,100311.59
2023-03-28T13:27:14.218Z,100298.03
2023-03-28T13:29:45.455Z,100253.28
2023-03-28T13:32:19.086Z,100263.38
2023-03-28T13:34:52.547Z,100296.19
2023-03-28T13:37:41.906Z,100298.28
2023-03-28T13:40:44.191Z,100282.59
2023-03-28T13:43:26.546Z,100291.22
2023-03-28T13:45:58.429Z,100266.56
2023-03-28T13:48:32.668Z,100258.34
2023-03-28T13:51:04.743Z,100229.63
2023-03-28T13:53:46.534Z,100241.22
2023-03-28T13:56:19.034Z,100276.47
2023-03-28T13:58:49.016Z,100266.91
2023-03-28T14:01:18.502Z,100238.47
2023-03-28T14:03:48.612Z,100235.91
2023-03-28T14:06:20.820Z,100216.84
2023-03-28T14:08:51.882Z,100233.41
2023-03-28T14:11:23.952Z,100232.28
2023-03-28T14:13:59.558Z,100206.00
2023-03-28T14:16:26.496Z,100222.34
2023-03-28T14:18:53.378Z,100193.84
2023-03-28T14:21:24.202Z,100235.25
2023-03-28T14:23:59.953Z,100187.72
2023-03-28T14:26:30.139Z,100177.81
2023-03-28T14:29:07.223Z,100189.38
2023-03-28T14:31:40.774Z,100225.25
2023-03-28T14:34:16.381Z,100184.78
2023-03-28T14:37:06.475Z,100221.75
2023-03-28T14:39:36.669Z,100211.34
2023-03-28T14:42:06.663Z,100213.22
2023-03-28T14:45:03.375Z,100200.13
2023-03-28T14:47:33.423Z,100168.25
2023-03-28T14:50:01.512Z,100184.78
2023-03-28T14:52:30.908Z,100211.41
2023-03-28T14:54:58.804Z,100169.28
2023-03-28T14:57:26.521Z,100189.22
2023-03-28T14:59:56.454Z,100170.78
2023-03-28T15:02:28.689Z,100193.44
2023-03-28T15:04:58.590Z,100158.44
2023-03-28T15:07:28.446Z,100178.16
2023-03-28T15:10:11.325Z,100141.84
2023-03-28T15:12:46.729Z,100155.13
2023-03-28T15:15:38.386Z,100154.59
2023-03-28T15:18:11.323Z,100143.72
2023-03-28T15:20:39.324Z,100115.19
2023-03-28T15:23:13.708Z,100138.91
2023-03-28T15:25:43.832Z,100134.69
2023-03-28T15:28:16.714Z,100162.34
2023-03-28T15:30:45.649Z,100139.84
2023-03-28T15:33:24.800Z,100154.72
2023-03-28T15:36:06.019Z,100160.34
2023-03-28T15:38:38.527Z,100122.91
2023-03-28T15:41:19.409Z,100155.56
2023-03-28T15:43:55.786Z,100115.63
2023-03-28T15:46:31.505Z,100098.53
2023-03-28T15:49:00.462Z,100119.28
2023-03-28T15:51:27.844Z,100098.97
2023-03-28T15:53:55.803Z,100103.44
2023-03-28T15:56:24.975Z,100130.75
2023-03-28T15:58:52.764Z,100128.50
2023-03-28T16:01:23.955Z,100129.56
2023-03-28T16:03:52.458Z,100118.09
2023-03-28T16:06:31.828Z,100131.09
2023-03-28T16:09:17.699Z,100112.44
2023-03-28T16:11:46.176Z,100127.06
2023-03-28T16:14:18.535Z,100098.06
2023-03-28T16:16:45.878Z,100124.03
2023-03-28T16:19:25.983Z,100122.19
2023-03-28T16:21:52.972Z,100123.03
2023-03-28T16:24:20.386Z,100085.56
2023-03-28T16:26:48.312Z,100119.25
2023-03-28T16:29:15.132Z,100122.16
2023-03-28T16:31:42.059Z,100111.31
2023-03-28T16:34:10.167Z,100078.91
2023-03-28T16:36:38.093Z,100121.06
2023-03-28T16:39:08.530Z,100107.19
2023-03-28T16:41:35.853Z,100113.34
2023-03-28T16:44:02.858Z,100075.91
2023-03-28T16:46:29.674Z,100082.69
2023-03-28T16:48:56.444Z,100063.31
2023-03-28T16:51:23.322Z,100115.69
2023-03-28T16:53:50.065Z,100078.09
2023-03-28T16:56:18.013Z,100119.31
2023-03-28T16:58:45.088Z,100079.06
2023-03-28T17:01:19.210Z,100099.16
2023-03-28T17:03:47.109Z,100088.59
2023-03-28T17:06:14.937Z,100102.06
2023-03-28T17:08:41.867Z,100092.31
2023-03-28T17:11:11.386Z,100108.88
2023-03-28T17:13:39.705Z,100101.75
2023-03-28T17:16:07.972Z,100082.09
2023-03-28T17:18:35.760Z,100104.34
2023-03-28T17:21:13.283Z,100069.75
2023-03-28T17:23:41.434Z,100111.84
2023-03-28T17:26:10.211Z,100112.78
2023-03-28T17:28:42.165Z,100063.94
2023-03-28T17:31:18.697Z,100082.28
2023-03-28T17:33:47.527Z,100073.81
2023-03-28T17:36:19.677Z,100101.16
2023-03-28T17:38:49.039Z,100102.09
2023-03-28T17:41:16.475Z,100032.84
2023-03-28T17:43:43.834Z,100062.13
2023-03-28T17:46:12.128Z,100100.38
2023-03-28T17:48:40.811Z,100080.69
2023-03-28T17:51:10.265Z,100059.34
2023-03-28T17:53:39.582Z,100051.16
2023-03-28T17:56:07.262Z,100067.59
2023-03-28T17:58:34.168Z,100053.59
2023-03-28T18:01:00.920Z,100085.72
2023-03-28T18:03:28.112Z,100056.28
2023-03-28T18:06:00.075Z,100035.53
2023-03-28T18:08:28.477Z,100042.81
2023-03-28T18:10:59.931Z,100054.44
2023-03-28T18:13:26.766Z,100059.72
2023-03-28T18:15:53.700Z,100063.75
2023-03-28T18:18:20.421Z,100064.97
2023-03-28T18:20:47.315Z,100021.97
2023-03-28T18:23:14.155Z,100052.94
2023-03-28T18:25:41.453Z,100054.38
2023-03-28T18:28:08.176Z,100074.81
2023-03-28T18:30:35.182Z,100065.63
2023-03-28T18:33:01.967Z,100068.13
2023-03-28T18:35:28.788Z,100018.09
2023-03-28T18:37:56.789Z,100051.88
2023-03-28T18:40:23.747Z,100060.03
2023-03-28T18:42:50.689Z,100000.38
2023-03-28T18:45:17.522Z,100064.53
2023-03-28T18:47:44.225Z,100015.31
2023-03-28T18:50:11.445Z,100015.16
2023-03-28T18:52:38.841Z,100052.50
2023-03-28T18:55:06.326Z,100051.81
2023-03-28T18:57:33.309Z,100061.88
2023-03-28T19:00:00.048Z,100045.72
2023-03-28T19:02:28.997Z,100038.00
2023-03-28T19:04:56.272Z,100021.53
2023-03-28T19:07:23.011Z,100066.41
2023-03-28T19:09:50.247Z,100015.16
2023-03-28T19:12:17.064Z,100047.00
2023-03-28T19:14:43.812Z,100011.34
2023-03-28T19:17:10.733Z,100024.97
2023-03-28T19:19:37.658Z,100038.19
2023-03-28T19:22:06.482Z,100058.03
2023-03-28T19:24:33.840Z,100044.16
2023-03-28T19:27:02.545Z,100040.31
2023-03-28T19:29:32.115Z,100025.34
2023-03-28T19:31:58.886Z,100025.34
2023-03-28T19:34:25.615Z,100013.94
2023-03-28T19:36:52.291Z,100030.72
2023-03-28T19:39:22.052Z,100052.69
2023-03-28T19:41:48.992Z,100038.72
2023-03-28T19:44:15.744Z,100060.94
2023-03-28T19:46:42.453Z,100023.50
2023-03-28T19:49:11.461Z,100038.69
2023-03-28T19:51:38.415Z,100058.16
2023-03-28T19:54:05.254Z,100058.16
2023-03-28T19:56:32.172Z,100060.59
2023-03-28T19:58:58.957Z,100053.38
2023-03-28T20:01:25.954Z,100045.81
2023-03-28T20:03:53.437Z,100069.06
2023-03-28T20:06:21.635Z,100056.56
2023-03-28T20:08:48.975Z,100080.03
2023-03-28T20:11:16.970Z,100051.16
2023-03-28T20:13:44.458Z,100035.34
2023-03-28T20:16:12.511Z,100078.59
2023-03-28T20:18:39.479Z,100070.63
2023-03-28T20:21:10.081Z,100072.59
2023-03-28T20:23:37.374Z,100052.34
2023-03-28T20:26:18.907Z,100045.47
2023-03-28T20:28:57.026Z,100057.72
2023-03-28T20:31:25.765Z,100091.19
2023-03-28T20:33:54.085Z,100062.91
2023-03-28T20:36:21.236Z,100053.22
2023-03-28T20:38:48.158Z,100007.22
2023-03-28T20:41:20.705Z,100013.47
2023-03-28T20:43:47.750Z,100030.56
2023-03-28T20:46:21.372Z,100056.66
2023-03-28T20:48:52.899Z,100046.34
2023-03-28T20:51:23.096Z,100020.19
2023-03-28T20:53:53.638Z,100024.00
2023-03-28T20:56:21.621Z,100049.34
2023-03-28T20:58:50.785Z,100024.28
2023-03-28T21:01:28.114Z,100027.34
2023-03-28T21:03:57.491Z,100052.53
2023-03-28T21:06:30.570Z,100053.84
2023-03-28T21:08:59.908Z,100052.31
2023-03-28T21:11:31.940Z,100015.19
2023-03-28T21:14:00.036Z,100043.94
2023-03-28T21:16:28.710Z,100041.91
2023-03-28T21:18:56.216Z,100008.19
2023-03-28T21:21:23.424Z,99984.41
2023-03-28T21:23:50.233Z,99976.81
2023-03-28T21:26:19.345Z,100039.41
2023-03-28T21:28:47.154Z,100030.22
2023-03-28T21:31:16.380Z,99997.25
2023-03-28T21:33:43.394Z,99995.72
2023-03-28T21:36:13.220Z,100007.16
2023-03-28T21:38:40.580Z,100001.31
2023-03-28T21:41:07.687Z,99970.59
2023-03-28T21:43:35.130Z,100026.94
2023-03-28T21:46:02.973Z,99973.38
2023-03-28T21:48:30.324Z,99953.66
2023-03-28T21:50:59.493Z,100028.25
2023-03-28T21:53:32.745Z,100028.88
2023-03-28T21:55:59.794Z,99985.22
2023-03-28T21:58:30.381Z,100001.22
2023-03-28T22:00:57.500Z,99988.78
2023-03-28T22:03:25.084Z,99988.78
2023-03-28T22:05:53.626Z,100025.34
2023-03-28T22:08:22.297Z,99996.38
2023-03-28T22:10:54.444Z,100019.25
2023-03-28T22:13:21.405Z,99973.47
2023-03-28T22:15:48.190Z,99990.38
2023-03-28T22:18:15.842Z,99950.44
2023-03-28T22:20:43.954Z,100025.69
2023-03-28T22:23:11.197Z,99997.44
2023-03-28T22:25:38.933Z,100021.09
2023-03-28T22:28:09.382Z,100001.56
2023-03-28T22:30:40.343Z,100001.69
2023-03-28T22:33:09.857Z,99991.47
2023-03-28T22:35:37.474Z,100027.94
2023-03-28T22:38:05.192Z,100026.56
2023-03-28T22:40:32.748Z,100002.69
2023-03-28T22:42:59.716Z,99998.66
2023-03-28T22:45:29.230Z,100015.03
2023-03-28T22:48:00.328Z,99995.34
2023-03-28T22:50:27.829Z,100007.63
2023-03-28T22:52:54.728Z,99997.19
2023-03-28T22:55:24.370Z,100035.31
2023-03-28T22:57:52.498Z,100044.84
2023-03-28T23:00:23.660Z,100001.75
2023-03-28T23:02:52.114Z,100018.59
2023-03-28T23:05:19.608Z,100011.59
2023-03-28T23:07:46.671Z,99979.66
2023-03-28T23:10:17.708Z,100010.66
2023-03-28T23:12:45.063Z,99991.03
2023-03-28T23:15:12.354Z,100021.34
2023-03-28T23:17:39.806Z,99972.13
2023-03-28T23:20:14.941Z,99981.91
2023-03-28T23:22:44.340Z,100011.81
2023-03-28T23:25:13.020Z,100006.53
2023-03-28T23:27:40.063Z,100008.41
2023-03-28T23:30:07.959Z,99986.28
2023-03-28T23:32:35.217Z,100003.09
2023-03-28T23:35:02.351Z,100003.09
2023-03-28T23:37:29.230Z,99958.13
2023-03-28T23:39:56.721Z,99974.22
2023-03-28T23:42:24.896Z,99993.88
2023-03-28T23:44:52.750Z,99978.41
2023-03-28T23:47:23.347Z,99973.19
2023-03-28T23:49:50.121Z,99942.63
2023-03-28T23:52:17.078Z,99937.22
2023-03-28T23:54:44.324Z,99950.16
2023-03-28T23:57:11.807Z,99988.53
2023-03-28T23:59:38.919Z,99943.78
